createdAt,value
2023-10-25T00:02:09.387Z,1.00
2023-10-25T00:05:01.787Z,1.50
2023-10-25T00:07:53.670Z,1.80
2023-10-25T00:10:46.202Z,1.50
2023-10-25T00:13:38.123Z,1.40
2023-10-25T00:16:29.917Z,1.70
2023-10-25T00:19:21.985Z,2.50
2023-10-25T00:22:14.618Z,1.10
2023-10-25T00:25:07.395Z,2.00
2023-10-25T00:27:59.201Z,1.30
2023-10-25T00:30:51.223Z,1.30
2023-10-25T00:33:45.162Z,1.80
2023-10-25T00:36:39.699Z,1.90
2023-10-25T00:39:31.606Z,1.70
2023-10-25T00:42:23.741Z,1.80
2023-10-25T00:45:18.254Z,1.80
2023-10-25T00:48:10.065Z,1.90
2023-10-25T00:51:02.344Z,3.10
2023-10-25T00:53:56.088Z,2.90
2023-10-25T00:56:47.871Z,1.80
2023-10-25T00:59:39.671Z,2.00
2023-10-25T01:02:31.660Z,1.90
2023-10-25T01:05:23.469Z,1.40
2023-10-25T01:08:15.179Z,1.50
2023-10-25T01:11:06.916Z,1.70
2023-10-25T01:13:58.740Z,1.70
2023-10-25T01:16:50.522Z,2.60
2023-10-25T01:19:42.638Z,2.70
2023-10-25T01:22:34.599Z,2.90
2023-10-25T01:25:26.338Z,6.30
2023-10-25T01:28:18.125Z,2.20
2023-10-25T01:31:10.131Z,3.80
2023-10-25T01:34:04.192Z,2.00
2023-10-25T01:36:56.602Z,2.00
2023-10-25T01:39:48.423Z,1.80
2023-10-25T01:42:40.298Z,2.30
2023-10-25T01:45:32.165Z,3.70
2023-10-25T01:48:23.902Z,3.50
2023-10-25T01:51:15.632Z,3.80
2023-10-25T01:54:08.066Z,3.70
2023-10-25T01:56:59.771Z,2.60
2023-10-25T01:59:51.695Z,2.10
2023-10-25T02:02:43.457Z,2.50
2023-10-25T02:05:36.041Z,2.70
2023-10-25T02:08:27.743Z,3.00
2023-10-25T02:11:21.745Z,3.30
2023-10-25T02:14:13.583Z,2.90
2023-10-25T02:17:05.342Z,3.70
2023-10-25T02:19:57.162Z,2.90
2023-10-25T02:22:48.910Z,3.90
2023-10-25T02:25:40.583Z,2.80
2023-10-25T02:28:32.489Z,2.50
2023-10-25T02:31:24.276Z,2.00
2023-10-25T02:34:16.227Z,2.20
2023-10-25T02:37:08.641Z,2.10
2023-10-25T02:40:02.891Z,2.70
2023-10-25T02:42:54.674Z,2.30
2023-10-25T02:45:46.597Z,2.40
2023-10-25T02:48:39.077Z,2.40
2023-10-25T02:51:31.147Z,2.30
2023-10-25T02:54:22.857Z,3.40
2023-10-25T02:57:14.688Z,3.10
2023-10-25T03:00:08.467Z,2.90
2023-10-25T03:03:00.270Z,2.70
2023-10-25T03:05:52.168Z,2.80
2023-10-25T03:08:43.975Z,2.50
2023-10-25T03:11:35.701Z,2.70
2023-10-25T03:14:27.460Z,2.60
2023-10-25T03:17:19.220Z,2.60
2023-10-25T03:20:13.567Z,2.90
2023-10-25T03:23:05.424Z,2.90
2023-10-25T03:25:57.951Z,3.10
2023-10-25T03:28:49.703Z,3.50
2023-10-25T03:31:42.706Z,3.50
2023-10-25T03:34:34.572Z,3.00
2023-10-25T03:37:26.481Z,2.70
2023-10-25T03:40:18.271Z,2.30
2023-10-25T03:43:10.184Z,2.50
2023-10-25T03:46:09.301Z,2.70
2023-10-25T03:49:01.157Z,3.50
2023-10-25T03:51:52.958Z,6.70
2023-10-25T03:54:44.857Z,2.90
2023-10-25T03:57:36.739Z,2.10
2023-10-25T04:00:29.136Z,1.90
2023-10-25T04:03:21.010Z,1.70
2023-10-25T04:06:13.012Z,2.20
2023-10-25T04:09:05.476Z,1.60
2023-10-25T04:11:57.182Z,1.70
2023-10-25T04:14:51.430Z,1.70
2023-10-25T04:17:43.121Z,2.40
2023-10-25T04:20:36.597Z,3.00
2023-10-25T04:23:30.686Z,2.20
2023-10-25T04:26:22.443Z,4.60
2023-10-25T04:29:14.205Z,4.60
2023-10-25T04:32:06.693Z,2.00
2023-10-25T04:34:59.460Z,1.80
2023-10-25T04:37:51.162Z,1.90
2023-10-25T04:40:42.867Z,5.60
2023-10-25T04:43:34.693Z,1.90
2023-10-25T04:46:27.835Z,1.80
2023-10-25T04:49:19.679Z,4.30
2023-10-25T04:52:13.575Z,5.00
2023-10-25T04:55:06.232Z,4.00
2023-10-25T04:57:58.398Z,3.70
2023-10-25T05:00:50.396Z,2.10
2023-10-25T05:03:42.289Z,2.50
2023-10-25T05:06:35.663Z,1.60
2023-10-25T05:09:29.288Z,2.20
2023-10-25T05:12:22.259Z,1.80
2023-10-25T05:15:16.828Z,1.50
2023-10-25T05:18:10.883Z,1.40
2023-10-25T05:21:05.110Z,1.70
2023-10-25T05:23:58.176Z,1.60
2023-10-25T05:26:51.693Z,1.50
2023-10-25T05:29:44.980Z,1.60
2023-10-25T05:32:38.481Z,1.90
2023-10-25T05:35:33.207Z,1.80
2023-10-25T05:38:27.116Z,1.80
2023-10-25T05:41:20.299Z,1.40
2023-10-25T05:44:17.064Z,1.60
2023-10-25T05:47:09.924Z,1.40
2023-10-25T05:50:03.775Z,1.40
2023-10-25T05:52:57.469Z,1.50
2023-10-25T05:55:51.846Z,1.80
2023-10-25T05:58:47.087Z,1.70
2023-10-25T06:01:44.654Z,1.30
2023-10-25T06:04:37.250Z,1.50
2023-10-25T06:07:30.515Z,2.00
2023-10-25T06:10:30.446Z,2.00
2023-10-25T06:13:24.205Z,1.90
2023-10-25T06:16:17.217Z,1.90
2023-10-25T06:19:09.280Z,2.80
2023-10-25T06:22:01.293Z,2.60
2023-10-25T06:24:53.180Z,1.60
2023-10-25T06:27:45.011Z,1.70
2023-10-25T06:30:37.446Z,2.00
2023-10-25T06:33:29.241Z,1.90
2023-10-25T06:36:22.918Z,1.70
2023-10-25T06:39:16.121Z,1.60
2023-10-25T06:42:11.496Z,1.50
2023-10-25T06:45:05.402Z,1.90
2023-10-25T06:47:58.834Z,2.00
2023-10-25T06:50:51.943Z,2.20
2023-10-25T06:53:45.712Z,2.20
2023-10-25T06:56:39.383Z,1.60
2023-10-25T06:59:32.748Z,1.60
2023-10-25T07:02:33.803Z,2.00
2023-10-25T07:05:26.718Z,1.50
2023-10-25T07:08:22.609Z,1.70
2023-10-25T07:14:04.912Z,2.20
2023-10-25T07:16:56.899Z,1.90
2023-10-25T07:19:48.772Z,2.10
2023-10-25T07:22:43.647Z,2.60
2023-10-25T07:25:35.404Z,2.50
2023-10-25T07:28:27.332Z,2.10
2023-10-25T07:31:19.492Z,1.90
2023-10-25T07:34:11.955Z,1.90
2023-10-25T07:37:04.258Z,1.70
2023-10-25T07:39:56.276Z,1.90
2023-10-25T07:42:50.784Z,1.80
2023-10-25T07:45:42.556Z,1.60
2023-10-25T07:48:34.391Z,1.70
2023-10-25T07:51:26.164Z,1.90
2023-10-25T07:54:17.930Z,1.70
2023-10-25T07:57:11.366Z,1.90
2023-10-25T08:00:03.937Z,1.70
2023-10-25T08:02:55.824Z,1.60
2023-10-25T08:05:48.021Z,1.70
2023-10-25T08:08:40.492Z,1.60
2023-10-25T08:11:36.363Z,1.50
2023-10-25T08:14:28.201Z,1.60
2023-10-25T08:17:20.040Z,1.50
2023-10-25T08:20:14.495Z,1.70
2023-10-25T08:23:06.376Z,1.70
2023-10-25T08:26:02.261Z,1.40
2023-10-25T08:28:54.038Z,1.60
2023-10-25T08:31:50.382Z,1.70
2023-10-25T08:34:49.652Z,1.20
2023-10-25T08:37:42.920Z,1.20
2023-10-25T08:40:34.747Z,0.90
2023-10-25T08:43:26.507Z,0.90
2023-10-25T08:46:18.586Z,1.20
2023-10-25T08:49:10.284Z,1.10
2023-10-25T08:52:03.158Z,1.00
2023-10-25T08:54:55.165Z,1.00
2023-10-25T08:57:46.934Z,1.00
2023-10-25T09:00:50.066Z,1.20
2023-10-25T09:03:44.148Z,1.20
2023-10-25T09:06:36.378Z,1.40
2023-10-25T09:09:28.313Z,1.10
2023-10-25T09:12:25.273Z,0.90
2023-10-25T09:15:17.226Z,1.10
2023-10-25T09:18:09.064Z,1.70
2023-10-25T09:21:11.667Z,1.50
2023-10-25T09:24:08.820Z,1.50
2023-10-25T09:29:51.967Z,1.30
2023-10-25T09:32:43.926Z,1.20
2023-10-25T09:35:36.035Z,1.40
2023-10-25T09:38:27.841Z,1.30
2023-10-25T09:41:19.555Z,1.50
2023-10-25T09:44:20.713Z,1.30
2023-10-25T09:47:13.535Z,1.70
2023-10-25T09:50:11.975Z,1.50
2023-10-25T09:53:10.255Z,1.40
2023-10-25T09:56:05.691Z,1.30
2023-10-25T09:59:00.713Z,1.40
2023-10-25T10:01:52.411Z,1.30
2023-10-25T10:04:49.463Z,1.50
2023-10-25T10:07:45.991Z,1.60
2023-10-25T10:10:41.328Z,1.50
2023-10-25T10:13:33.210Z,1.40
2023-10-25T10:16:24.961Z,1.40
2023-10-25T10:19:17.233Z,1.50
2023-10-25T10:22:14.261Z,1.60
2023-10-25T10:25:07.607Z,1.40
2023-10-25T10:28:08.631Z,1.40
2023-10-25T10:31:00.532Z,1.50
2023-10-25T10:33:52.689Z,1.70
2023-10-25T10:36:44.480Z,1.70
2023-10-25T10:39:36.239Z,1.60
2023-10-25T10:42:34.860Z,1.70
2023-10-25T10:45:30.694Z,1.60
2023-10-25T10:51:16.931Z,1.80
2023-10-25T10:54:09.670Z,1.60
2023-10-25T10:57:01.446Z,1.70
2023-10-25T10:59:53.686Z,1.60
2023-10-25T11:02:49.388Z,1.70
2023-10-25T11:05:41.712Z,1.60
2023-10-25T11:08:34.100Z,1.60
2023-10-25T11:11:25.915Z,1.70
2023-10-25T11:14:17.784Z,1.40
2023-10-25T11:17:09.870Z,1.50
2023-10-25T11:20:03.728Z,1.50
2023-10-25T11:22:59.225Z,1.80
2023-10-25T11:25:51.305Z,1.70
2023-10-25T11:28:45.002Z,1.70
2023-10-25T11:31:37.066Z,1.80
2023-10-25T11:34:32.699Z,1.60
2023-10-25T11:37:26.535Z,1.80
2023-10-25T11:40:18.310Z,2.40
2023-10-25T11:43:10.487Z,1.80
2023-10-25T11:46:04.529Z,1.70
2023-10-25T11:49:00.269Z,1.40
2023-10-25T11:54:42.422Z,2.10
2023-10-25T11:57:35.882Z,2.60
2023-10-25T12:00:27.781Z,2.90
2023-10-25T12:03:19.591Z,2.10
2023-10-25T12:06:12.943Z,2.10
2023-10-25T12:09:05.257Z,2.10
2023-10-25T12:11:57.106Z,1.80
2023-10-25T12:14:49.271Z,2.00
2023-10-25T12:17:41.595Z,2.50
2023-10-25T12:20:34.718Z,2.20
2023-10-25T12:23:26.583Z,2.80
2023-10-25T12:26:18.316Z,2.50
2023-10-25T12:29:12.219Z,2.60
2023-10-25T12:32:04.440Z,2.80
2023-10-25T12:34:56.151Z,2.10
2023-10-25T12:37:48.203Z,2.00
2023-10-25T12:40:39.995Z,1.70
2023-10-25T12:43:31.750Z,1.80
2023-10-25T12:46:23.545Z,1.90
2023-10-25T12:49:16.875Z,1.60
2023-10-25T12:52:10.076Z,1.60
2023-10-25T12:55:02.285Z,1.70
2023-10-25T12:57:54.122Z,1.50
2023-10-25T13:00:46.781Z,1.50
2023-10-25T13:03:39.128Z,1.40
2023-10-25T13:06:34.274Z,1.30
2023-10-25T13:09:27.069Z,1.40
2023-10-25T13:12:18.849Z,1.20
2023-10-25T13:15:12.937Z,1.30
2023-10-25T13:18:04.767Z,0.90
2023-10-25T13:20:57.064Z,1.00
2023-10-25T13:23:48.786Z,1.10
2023-10-25T13:26:40.596Z,1.10
2023-10-25T13:29:32.450Z,0.90
2023-10-25T13:32:26.267Z,0.80
2023-10-25T13:35:20.577Z,1.00
2023-10-25T13:38:12.341Z,0.80
2023-10-25T13:41:04.192Z,0.70
2023-10-25T13:43:55.953Z,1.10
2023-10-25T13:46:47.711Z,0.80
2023-10-25T13:49:40.544Z,0.80
2023-10-25T13:52:32.301Z,0.70
2023-10-25T13:55:24.884Z,0.80
2023-10-25T13:58:20.286Z,0.90
2023-10-25T14:04:03.024Z,0.90
2023-10-25T14:06:56.229Z,0.40
2023-10-25T14:09:48.275Z,0.80
2023-10-25T14:12:40.032Z,0.80
2023-10-25T14:15:31.726Z,1.30
2023-10-25T14:18:23.504Z,0.70
2023-10-25T14:21:17.761Z,1.00
2023-10-25T14:24:13.908Z,0.80
2023-10-25T14:27:06.022Z,1.10
2023-10-25T14:29:58.129Z,0.90
2023-10-25T14:32:49.959Z,1.10
2023-10-25T14:35:42.053Z,1.30
2023-10-25T14:38:33.803Z,1.30
2023-10-25T14:41:28.633Z,2.10
2023-10-25T14:44:20.391Z,1.80
2023-10-25T14:47:12.279Z,1.70
2023-10-25T14:50:04.827Z,2.60
2023-10-25T14:52:56.694Z,1.80
2023-10-25T14:55:48.778Z,1.00
2023-10-25T14:58:40.699Z,1.00
2023-10-25T15:01:32.481Z,0.70
2023-10-25T15:04:24.355Z,0.80
2023-10-25T15:07:19.014Z,0.70
2023-10-25T15:10:13.371Z,0.60
2023-10-25T15:13:05.390Z,0.60
2023-10-25T15:16:05.569Z,0.80
2023-10-25T15:18:57.339Z,0.80
2023-10-25T15:21:56.279Z,0.70
2023-10-25T15:24:51.123Z,0.30
2023-10-25T15:27:43.245Z,0.50
2023-10-25T15:30:35.064Z,1.00
2023-10-25T15:33:26.984Z,0.40
2023-10-25T15:36:18.913Z,0.30
2023-10-25T15:39:11.094Z,0.60
2023-10-25T15:42:04.786Z,0.20
2023-10-25T15:44:58.371Z,0.40
2023-10-25T15:47:50.150Z,0.50
2023-10-25T15:50:41.998Z,0.60
2023-10-25T15:53:33.985Z,0.50
2023-10-25T15:56:25.842Z,0.40
2023-10-25T15:59:18.357Z,0.40
2023-10-25T16:02:11.364Z,0.60
2023-10-25T16:05:03.233Z,0.50
2023-10-25T16:07:55.052Z,0.80
2023-10-25T16:10:47.345Z,0.40
2023-10-25T16:13:39.161Z,0.60
2023-10-25T16:16:30.866Z,0.20
2023-10-25T16:19:23.597Z,0.50
2023-10-25T16:22:19.083Z,0.40
2023-10-25T16:25:14.506Z,0.60
2023-10-25T16:28:08.440Z,0.60
2023-10-25T16:31:00.301Z,0.70
2023-10-25T16:33:51.976Z,0.60
2023-10-25T16:36:57.060Z,0.80
2023-10-25T16:39:56.550Z,0.70
2023-10-25T16:42:48.413Z,0.70
2023-10-25T16:45:41.093Z,0.90
2023-10-25T16:48:35.062Z,0.80
2023-10-25T16:51:26.883Z,0.90
2023-10-25T16:54:18.625Z,0.40
2023-10-25T16:57:10.672Z,0.50
2023-10-25T17:00:04.426Z,1.10
2023-10-25T17:02:58.827Z,0.80
2023-10-25T17:05:50.801Z,1.30
2023-10-25T17:08:43.629Z,1.10
2023-10-25T17:11:38.186Z,1.60
2023-10-25T17:14:30.459Z,1.00
2023-10-25T17:17:22.445Z,1.10
2023-10-25T17:20:15.911Z,0.70
2023-10-25T17:23:11.602Z,0.80
2023-10-25T17:28:53.959Z,0.70
2023-10-25T17:31:45.691Z,0.80
2023-10-25T17:34:37.596Z,0.90
2023-10-25T17:37:29.387Z,0.80
2023-10-25T17:40:21.365Z,0.90
2023-10-25T17:43:13.055Z,0.90
2023-10-25T17:48:59.754Z,0.80
2023-10-25T17:51:51.453Z,0.70
2023-10-25T17:54:43.226Z,0.70
2023-10-25T17:57:34.984Z,0.60
2023-10-25T18:00:26.955Z,2.30
2023-10-25T18:03:19.178Z,1.00
2023-10-25T18:06:12.730Z,0.90
2023-10-25T18:09:04.728Z,0.80
2023-10-25T18:11:56.619Z,0.80
2023-10-25T18:14:52.120Z,1.20
2023-10-25T18:17:44.135Z,1.00
2023-10-25T18:20:36.286Z,0.60
2023-10-25T18:23:28.161Z,0.60
2023-10-25T18:26:19.933Z,1.10
2023-10-25T18:29:11.674Z,1.00
2023-10-25T18:32:21.506Z,1.10
2023-10-25T18:35:16.319Z,1.10
2023-10-25T18:38:11.948Z,1.40
2023-10-25T18:43:54.995Z,1.10
2023-10-25T18:46:47.242Z,0.80
2023-10-25T18:49:41.636Z,1.00
2023-10-25T18:52:33.290Z,1.10
2023-10-25T18:55:25.039Z,0.70
2023-10-25T18:58:18.473Z,0.70
2023-10-25T19:01:18.343Z,0.60
2023-10-25T19:04:11.986Z,0.60
2023-10-25T19:07:05.446Z,0.90
2023-10-25T19:10:29.483Z,0.80
2023-10-25T19:13:22.893Z,0.90
2023-10-25T19:16:14.761Z,1.00
2023-10-25T19:19:06.523Z,0.90
2023-10-25T19:21:58.249Z,0.80
2023-10-25T19:24:50.088Z,1.10
2023-10-25T19:27:41.849Z,1.10
2023-10-25T19:30:33.804Z,1.10
2023-10-25T19:33:25.708Z,1.20
2023-10-25T19:36:18.298Z,1.00
2023-10-25T19:39:10.575Z,0.90
2023-10-25T19:42:03.260Z,0.80
2023-10-25T19:44:55.055Z,0.90
2023-10-25T19:47:49.065Z,1.00
2023-10-25T19:50:41.200Z,0.70
2023-10-25T19:53:33.844Z,0.70
2023-10-25T19:56:26.137Z,0.90
2023-10-25T19:59:18.923Z,1.30
2023-10-25T20:02:12.517Z,0.80
2023-10-25T20:05:04.870Z,0.90
2023-10-25T20:07:56.822Z,0.90
2023-10-25T20:10:48.610Z,0.80
2023-10-25T20:13:40.287Z,0.60
2023-10-25T20:16:32.576Z,0.70
2023-10-25T20:19:24.372Z,1.00
2023-10-25T20:22:16.136Z,0.80
2023-10-25T20:25:09.852Z,1.20
2023-10-25T20:28:01.657Z,0.90
2023-10-25T20:30:53.403Z,1.10
2023-10-25T20:33:45.172Z,1.00
2023-10-25T20:36:37.236Z,1.10
2023-10-25T20:39:28.966Z,1.20
2023-10-25T20:42:20.682Z,1.40
2023-10-25T20:45:13.758Z,0.80
2023-10-25T20:48:06.737Z,1.10
2023-10-25T20:51:01.904Z,1.30
2023-10-25T20:53:55.967Z,1.20
2023-10-25T20:56:47.812Z,1.10
2023-10-25T20:59:40.141Z,1.20
2023-10-25T21:02:33.214Z,1.40
2023-10-25T21:05:25.177Z,1.10
2023-10-25T21:08:16.893Z,1.30
2023-10-25T21:11:12.339Z,1.40
2023-10-25T21:16:54.612Z,1.10
2023-10-25T21:19:46.357Z,1.30
2023-10-25T21:22:38.075Z,1.10
2023-10-25T21:25:30.169Z,1.10
2023-10-25T21:28:22.503Z,0.90
2023-10-25T21:31:14.294Z,1.00
2023-10-25T21:34:06.210Z,1.10
2023-10-25T21:36:58.020Z,0.90
2023-10-25T21:39:49.996Z,0.70
2023-10-25T21:42:41.752Z,0.50
2023-10-25T21:45:33.672Z,0.70
2023-10-25T21:48:25.535Z,0.70
2023-10-25T21:51:17.379Z,0.90
2023-10-25T21:54:10.046Z,0.90
2023-10-25T21:57:01.867Z,0.80
2023-10-25T21:59:56.015Z,1.00
2023-10-25T22:02:48.413Z,0.90
2023-10-25T22:05:40.960Z,0.80
2023-10-25T22:08:33.710Z,0.70
2023-10-25T22:11:25.917Z,0.80
2023-10-25T22:14:17.700Z,0.80
2023-10-25T22:17:09.490Z,0.60
2023-10-25T22:20:01.557Z,0.90
2023-10-25T22:22:53.439Z,0.60
2023-10-25T22:25:45.196Z,0.80
2023-10-25T22:28:36.848Z,1.00
2023-10-25T22:31:28.607Z,0.70
2023-10-25T22:34:20.616Z,0.70
2023-10-25T22:37:12.847Z,0.90
2023-10-25T22:40:06.239Z,0.90
2023-10-25T22:42:57.980Z,0.80
2023-10-25T22:45:49.601Z,0.90
2023-10-25T22:48:41.674Z,1.00
2023-10-25T22:51:33.641Z,0.90
2023-10-25T22:54:25.478Z,0.80
2023-10-25T22:57:17.869Z,0.80
2023-10-25T23:00:12.734Z,1.10
2023-10-25T23:03:06.103Z,0.80
2023-10-25T23:06:01.764Z,1.10
2023-10-25T23:08:54.741Z,1.00
2023-10-25T23:11:46.677Z,1.00
2023-10-25T23:14:38.724Z,0.70
2023-10-25T23:17:31.614Z,0.80
2023-10-25T23:20:23.501Z,0.90
2023-10-25T23:23:15.240Z,1.10
2023-10-25T23:26:10.500Z,1.10
2023-10-25T23:29:02.557Z,0.60
2023-10-25T23:31:54.221Z,0.90
2023-10-25T23:34:46.158Z,0.90
2023-10-25T23:37:38.085Z,0.70
2023-10-25T23:40:29.764Z,1.30
2023-10-25T23:43:21.411Z,1.10
2023-10-25T23:46:13.091Z,1.20
2023-10-25T23:49:04.900Z,0.90
2023-10-25T23:51:56.641Z,0.90
2023-10-25T23:54:54.050Z,1.00
2023-10-25T23:57:47.508Z,1.20
